1972 Tropical Cyclone BRONWYN(SEC (1972003S16139)


IBTrACS version v04r00. Visit IBTrACS website for data access.
Please direct all questions to the IBTrACS Q and A forum

Storm track - Intensity - Wind Radii - Intensity Data - Source Data - All data

Summary Information

Storm ID 1972003S16139
Start Jan 2 23Z
Landfall Jan 7 03Z
Max Intensity 40 kt (Jan 6 06Z), 993 mb (Jan 6 03Z)
End Jan 12 00Z
ATCF IDs ,SH111972
Track status Best track data.

Storm track plot

Map of storm track

Intensity plots

Map of storm track

Radial wind information

No radial wind information for this storm


Position and Intensity Table

BASIN ISO_TIME_________ NATURE LAT LON WMO PRES USA WIND BOM PRES DS824 WIND DS824 PRES TD9636 WIND NEUMANN WIND
degrees north degrees east mb kts mb kts mb kts kts
SP 1972-01-02 23:00:00 NR -16.20 138.70 1004 1004
SP 1972-01-03 00:00:00 TS -16.13 138.70 10 1003 20 1004 20
SP 02:00:00 TS -16.01 138.71 1003 8 1003 21 1003 21
SP 03:00:00 TS -15.95 138.73 7 1002 22 1003 22
SP 05:00:00 TS -15.83 138.75 1002 5 1002 24 1002 24
SP 06:00:00 TS -15.77 138.76 5 1002 25 1002 25
SP 08:00:00 TS -15.63 138.77 1002 5 1002 23 1002 23
SP 09:00:00 TS -15.56 138.78 5 1002 22 1003 22
SP 11:00:00 TS -15.41 138.79 1004 5 1004 20 1003 20
SP 12:00:00 TS -15.32 138.80 5 1003 20 1004 20
SP 14:00:00 TS -15.14 138.83 1003 6 1003 21 1003 21
SP 15:00:00 TS -15.05 138.84 7 1002 22 1003 22
SP 17:00:00 TS -14.86 138.89 1002 9 1002 24 1002 24
SP 18:00:00 TS -14.76 138.91 10 1002 25 1002 25
SP 20:00:00 TS -14.56 138.94 1004 10 1004 23 1002 23
SP 21:00:00 TS -14.45 138.96 10 1004 22 1003 22
SP 23:00:00 TS -14.23 138.99 1004 10 1004 20 1003 10 20
SP 1972-01-04 00:00:00 TS -14.11 139.00 10 1004 20 1004 9 20
SP 02:00:00 TS -13.88 139.04 1004 10 1004 21 1003 8 21
SP 03:00:00 TS -13.75 139.06 10 1003 22 1003 8 22
SP 05:00:00 TS -13.49 139.12 1002 10 1002 24 1002 7 24
SP 06:00:00 TS -13.36 139.14 10 1001 25 1002 7 25
SP 08:00:00 TS -13.08 139.19 1000 10 1000 26 1001 6 26
SP 09:00:00 TS -12.93 139.22 10 1000 27 1001 5 27
SP 11:00:00 TS -12.63 139.28 1001 10 1001 29 1001 5 29
SP 12:00:00 TS -12.48 139.31 10 1001 30 1001 5 30
SP 14:00:00 TS -12.16 139.40 1001 13 1001 30 1000 6 30
SP 15:00:00 TS -11.99 139.45 15 1000 30 1000 6 30
SP 17:00:00 TS -11.70 139.57 1000 18 1000 30 1000 7 30
SP 18:00:00 TS -11.58 139.63 20 1000 30 1000 7 30
SP 20:00:00 TS -11.41 139.78 1000 21 1000 28 1000 8 28
SP 21:00:00 TS -11.36 139.84 22 1000 27 1001 9 27
SP 23:00:00 TS -11.31 139.96 1002 24 1002 25 1001 10 25
SP 1972-01-05 00:00:00 TS -11.29 140.01 25 1001 25 1002 10 25
SP 02:00:00 TS -11.28 140.09 1000 28 1000 28 1000 10 28
SP 03:00:00 TS -11.29 140.12 30 999 30 999 10 30
SP 05:00:00 TS -11.31 140.18 997 33 997 33 997 10 33
SP 06:00:00 TS -11.33 140.21 35 997 35 997 10 35
SP 08:00:00 TS -11.35 140.28 997 35 997 35 997 10 35
SP 09:00:00 TS -11.36 140.31 35 997 35 997 10 35
SP 11:00:00 TS -11.39 140.38 998 35 998 35 997 10 35
SP 12:00:00 TS -11.40 140.41 35 998 35 998 11 35
SP 14:00:00 TS -11.41 140.47 998 33 998 35 997 13 35
SP 15:00:00 TS -11.42 140.51 32 997 35 997 14 35
SP 17:00:00 TS -11.43 140.57 996 30 996 35 996 17 35
SP 18:00:00 TS -11.45 140.61 30 996 35 996 18 35
SP 20:00:00 TS -11.47 140.67 996 30 996 35 996 21 35
SP 21:00:00 TS -11.48 140.70 30 996 35 996 22 35
SP 23:00:00 TS -11.49 140.78 996 30 996 35 996 25 35
SP 1972-01-06 00:00:00 TS -11.50 140.84 30 995 35 996 25 35
SP 02:00:00 TS -11.53 140.97 994 28 994 36 994 27 36
SP 03:00:00 TS -11.55 141.05 27 993 37 994 28 37
SP 05:00:00 TS -11.59 141.20 993 25 993 39 993 30 39
SP 06:00:00 TS -11.60 141.27 25 993 40 993 30 40
SP 08:00:00 TS -11.63 141.41 993 25 993 40 993 32 40
SP 09:00:00 TS -11.66 141.47 25 993 40 993 33 40
SP 11:00:00 TS -11.69 141.57 993 25 993 40 993 35 40
SP 12:00:00 TS -11.70 141.61 25 993 40 993 34 40
SP 14:00:00 TS -11.69 141.66 995 25 995 40 993 33 40
SP 15:00:00 TS -11.68 141.69 25 994 40 993 33 40
SP 17:00:00 TS -11.68 141.74 994 25 994 40 993 32 40
SP 18:00:00 TS -11.69 141.76 25 994 40 994 32 40
SP 20:00:00 TS -11.73 141.81 994 25 994 38 994 31 38
SP 21:00:00 TS -11.74 141.84 25 994 37 995 30 37
SP 23:00:00 TS -11.83 141.88 996 25 996 35 995 30 35
SP 1972-01-07 00:00:00 TS -11.94 141.88 25 995 35 996 29 35
SP 03:00:00 TS -12.40 141.82 20 994 37 994 28 37
SP 05:00:00 TS -12.75 141.78 993 16 993 39 993 27 39
SP 06:00:00 TS -12.91 141.78 15 993 40 993 27 40
SP 08:00:00 TS -13.22 141.79 993 13 993 40 993 26 40
SP 09:00:00 TS -13.36 141.79 12 993 40 993 25 40
SP 11:00:00 TS -13.67 141.80 993 10 993 40 993 25 40
SP 12:00:00 TS -13.87 141.80 10 993 40 993 25 40
SP 15:00:00 TS -14.57 141.81 15 993 40 993 25 37
SP 17:00:00 TS -15.05 141.86 993 18 993 40 993 25 35
SP 18:00:00 TS -15.26 141.92 20 993 40 993 25 35
SP 20:00:00 TS -15.62 142.03 994 23 994 38 994 25 35
SP 21:00:00 TS -15.75 142.05 25 995 37 995 25 35
SP 23:00:00 TS -15.98 142.08 998 28 998 35 997 25 35
SP 1972-01-08 00:00:00 TS -16.09 142.13 30 996 35 998 23 35
SP 02:00:00 TS -16.31 142.26 994 30 994 36 996 21 35
SP 03:00:00 TS -16.41 142.33 30 994 37 996 20 35
SP 05:00:00 TS -16.60 142.47 994 30 994 39 994 17 35
SP 06:00:00 TS -16.70 142.53 30 994 40 994 16 35
SP 08:00:00 TS -16.89 142.65 994 30 994 40 994 13 35
SP 09:00:00 TS -16.99 142.69 30 994 40 994 12 35
SP 11:00:00 TS -17.18 142.78 995 30 995 40 994 10 35
SP 12:00:00 TS -17.28 142.81 30 995 40 995 11 35
SP 15:00:00 TS -17.59 142.90 30 995 40 995 16 32
SP 17:00:00 TS -17.78 142.94 995 30 995 40 995 20 30
SP 18:00:00 TS -17.88 142.95 30 995 40 995 21 30
SP 20:00:00 TS -18.06 142.97 996 30 996 40 995 25 30
SP 21:00:00 TS -18.14 142.99 30 995 40 995 26 30
SP 23:00:00 TS -18.30 143.00 995 30 995 40 995 30 30
SP 1972-01-09 00:00:00 TS -18.37 143.00 30 995 40 995 30 30
SP 02:00:00 TS -18.53 142.99 996 28 996 40 995 30 30
SP 03:00:00 TS -18.60 142.98 27 995 40 995 30 30
SP 05:00:00 TS -18.76 142.92 995 25 995 40 995 30 30
SP 06:00:00 TS -18.84 142.89 25 995 40 995 30 30
SP 08:00:00 TS -18.98 142.80 995 25 995 40 995 30 30
SP 09:00:00 TS -19.06 142.74 25 995 40 995 30 30
SP 11:00:00 TS -19.20 142.60 995 25 995 40 995 30 30
SP 12:00:00 TS -19.27 142.52 25 995 40 995 30 30
SP 14:00:00 TS -19.41 142.35 995 25 995 40 994 30 28
SP 15:00:00 TS -19.48 142.25 25 994 40 994 30 27
SP 17:00:00 TS -19.61 142.06 994 25 994 40 994 30 25
SP 18:00:00 TS -19.68 141.96 25 994 40 994 30 25
SP 20:00:00 TS -19.84 141.77 994 25 994 38 994 30 25
SP 21:00:00 TS -19.92 141.68 25 994 37 995 30 25
SP 23:00:00 TS -20.10 141.51 996 25 996 35 995 30 25
SP 1972-01-10 00:00:00 TS -20.17 141.42 25 995 35 996 29 25
SP 02:00:00 TS -20.31 141.26 994 23 994 36 995 28 25
SP 03:00:00 TS -20.38 141.18 22 994 37 995 28 25
SP 05:00:00 TS -20.51 141.04 995 20 995 39 995 27 25
SP 06:00:00 TS -20.58 140.98 20 995 40 995 27 25
SP 08:00:00 TS -20.73 140.85 996 18 996 38 996 26 25
SP 09:00:00 TS -20.81 140.80 17 996 37 996 25 25
SP 11:00:00 TS -20.99 140.72 998 15 998 35 997 25 25
SP 12:00:00 TS -21.08 140.69 15 997 35 998 25 25
SP 14:00:00 TS -21.27 140.68 997 16 997 36 996 25 25
SP 15:00:00 TS -21.37 140.70 17 996 37 996 25 25
SP 17:00:00 TS -21.58 140.74 995 19 995 39 995 25 25
SP 18:00:00 TS -21.68 140.75 20 995 40 995 25 25
SP 20:00:00 TS -21.88 140.79 997 997 38 996 25 25
SP 21:00:00 TS -21.98 140.82 997 37 996 25 25
SP 23:00:00 TS -22.18 140.88 998 998 35 997 25 25
SP 1972-01-11 00:00:00 TS -22.28 140.90 997 35 998 24 25
SP 02:00:00 TS -22.48 140.94 997 997 35 997 22 23
SP 03:00:00 TS -22.58 140.97 996 35 997 21 22
SP 05:00:00 TS -22.78 141.03 996 996 35 996 20 20
SP 06:00:00 TS -22.88 141.08 996 35 996 19 20
SP 08:00:00 TS -23.07 141.19 997 997 35 996 17 20
SP 09:00:00 TS -23.17 141.25 997 35 997 16 20
SP 11:00:00 TS -23.38 141.40 998 998 35 997 15 20
SP 12:00:00 TS -23.49 141.48 997 35 998 15 20
SP 14:00:00 TS -23.74 141.66 997 997 35 997 17 20
SP 15:00:00 TS -23.88 141.75 997 35 997 18 20
SP 17:00:00 TS -24.15 141.94 997 997 35 997 20 20
SP 18:00:00 TS -24.29 142.04 997 35 997 20 20
SP 20:00:00 TS -24.57 142.25 997 997 22 20
SP 21:00:00 TS -24.72 142.35 997 23 20
SP 23:00:00 TS -25.02 142.55 997 997 25 20
SP 1972-01-12 00:00:00 TS -25.10 142.60 20

Source Information

Agency Information
USA bsh111972.txt
TOKYO
CMA
HKO
NEWDELHI
REUNION
BOM IDCKMSTM0S.csv:Line=6600:BRONWYN
NADI
WELLINGTON
DS824 aus_area.dat:477:BRONWYN (SEC
TD9636 cons_worldwide_trop_cyclone_18710101-19891231-006:Line=8750
TD9635
NEUMANN tracks.sh:Storm=321:BRONWYN:BSH1172:BM406
MLC

All available IBTrACS Data

SEASON BASIN SUBBASIN ISO_TIME_________ NATURE LAT LON WMO PRES WMO AGENCY DIST2LAND LANDFALL IFLAG USA AGENCY USA ATCF_ID USA LAT USA LON USA WIND USA SSHS BOM LAT BOM LON BOM PRES BOM PRES_METHOD DS824 LAT DS824 LON DS824 STAGE DS824 WIND DS824 PRES TD9636 LAT TD9636 LON TD9636 STAGE TD9636 WIND NEUMANN LAT NEUMANN LON NEUMANN CLASS NEUMANN WIND STORM SPEED STORM DIR
Year degrees north degrees east mb km km degrees north degrees east kts 1 degrees north degrees east mb degrees north degrees east kts mb degrees north degrees east kts degrees north degrees east kts kts degrees
1972 SP EA 1972-01-02 23:00:00 NR -16.20 138.70 1004 bom 67 67 ______O___O___ -1 -16.20 138.70 1004 -16.20 138.70 1 4 0
1972 SP EA 1972-01-03 00:00:00 TS -16.13 138.70 79 79 O_____P__OP_O_ jtwc_sh SH111972 -16.10 138.70 10 -1 -16.13 138.69 1003 -16.10 138.70 TC 20 1004 -16.14 138.71 1 -16.20 138.70 TC 20 4 8
1972 SP EA 02:00:00 TS -16.01 138.71 1003 bom 90 90 P_____O__PP_P_ SH111972 -16.02 138.69 8 -1 -16.00 138.70 1003 -15.96 138.74 TC 21 1003 -16.02 138.72 1 -16.06 138.74 TC 21 4 0
1972 SP EA 03:00:00 TS -15.95 138.73 90 90 P_____P__PP_P_ SH111972 -15.97 138.69 7 -1 -15.93 138.73 1002 -15.90 138.76 TC 22 1003 -15.96 138.73 1 -16.00 138.76 TC 22 4 12
1972 SP EA 05:00:00 TS -15.83 138.75 1002 bom 113 113 P_____O__PP_P_ SH111972 -15.86 138.69 5 -1 -15.80 138.80 1002 -15.76 138.79 TC 24 1002 -15.83 138.74 1 -15.86 138.79 TC 24 4 11
1972 SP EA 06:00:00 TS -15.77 138.76 113 113 O_____P__OP_O_ jtwc_sh SH111972 -15.80 138.70 5 -1 -15.73 138.81 1002 -15.70 138.80 TC 25 1002 -15.76 138.75 1 -15.80 138.80 TC 25 4 6
1972 SP EA 08:00:00 TS -15.63 138.77 1002 bom 135 135 P_____O__PP_P_ SH111972 -15.65 138.73 5 -1 -15.60 138.80 1002 -15.58 138.80 TC 23 1002 -15.63 138.77 1 -15.68 138.80 TC 23 4 8
1972 SP EA 09:00:00 TS -15.56 138.78 135 135 P_____P__PP_P_ SH111972 -15.57 138.74 5 -1 -15.54 138.80 1002 -15.51 138.80 TC 22 1003 -15.55 138.78 1 -15.61 138.80 TC 22 5 0
1972 SP EA 11:00:00 TS -15.41 138.79 1004 bom 147 147 P_____O__PO_P_ SH111972 -15.39 138.78 5 -1 -15.40 138.80 1004 -15.38 138.80 TC 20 1003 -15.40 138.80 1 -15.48 138.80 TC 20 5 0
1972 SP EA 12:00:00 TS -15.32 138.80 154 154 O_____P__OP_O_ jtwc_sh SH111972 -15.30 138.80 5 -1 -15.31 138.79 1003 -15.30 138.80 TC 20 1004 -15.32 138.81 1 -15.40 138.80 TC 20 5 10
1972 SP EA 14:00:00 TS -15.14 138.83 1003 bom 170 170 P_____O__PP_P_ SH111972 -15.14 138.83 6 -1 -15.10 138.80 1003 -15.12 138.83 TC 21 1003 -15.14 138.84 1 -15.22 138.83 TC 21 5 8
1972 SP EA 15:00:00 TS -15.05 138.84 170 170 P_____P__PP_P_ SH111972 -15.06 138.85 7 -1 -15.00 138.83 1002 -15.02 138.84 TC 22 1003 -15.05 138.85 1 -15.12 138.84 TC 22 6 12
1972 SP EA 17:00:00 TS -14.86 138.89 1002 bom 194 194 P_____O__PP_P_ SH111972 -14.89 138.88 9 -1 -14.80 138.90 1002 -14.81 138.88 TC 24 1002 -14.86 138.88 1 -14.91 138.88 TC 24 6 12
1972 SP EA 18:00:00 TS -14.76 138.91 202 202 O_____P__OP_O_ jtwc_sh SH111972 -14.80 138.90 10 -1 -14.70 138.94 1002 -14.70 138.90 TC 25 1002 -14.76 138.90 1 -14.80 138.90 TC 25 6 10
1972 SP EA 20:00:00 TS -14.56 138.94 1004 bom 207 205 P_____O__PP_P_ SH111972 -14.59 138.93 10 -1 -14.50 139.00 1004 -14.51 138.93 TC 23 1002 -14.54 138.94 1 -14.61 138.93 TC 23 6 11
1972 SP EA 21:00:00 TS -14.45 138.96 215 215 P_____P__PP_P_ SH111972 -14.47 138.94 10 -1 -14.40 139.01 1004 -14.41 138.95 TC 22 1003 -14.43 138.96 1 -14.51 138.95 TC 22 7 8
1972 SP EA 23:00:00 TS -14.23 138.99 1004 bom 215 215 P_____O__PO_P_ SH111972 -14.23 138.98 10 -1 -14.20 139.00 1004 -14.21 138.98 TC 20 1003 -14.20 139.00 1 10 -14.31 138.98 TC 20 7 7
1972 SP EA 1972-01-04 00:00:00 TS -14.11 139.00 216 216 O_____P__OP_O_ jtwc_sh SH111972 -14.10 139.00 10 -1 -14.11 138.99 1004 -14.10 139.00 TC 20 1004 -14.08 139.02 1 9 -14.20 139.00 TC 20 7 10
1972 SP EA 02:00:00 TS -13.88 139.04 1004 bom 220 220 P_____O__PP_P_ SH111972 -13.84 139.06 10 -1 -13.90 139.00 1004 -13.89 139.03 TC 21 1003 -13.82 139.05 1 8 -13.99 139.03 TC 21 7 10
1972 SP EA 03:00:00 TS -13.75 139.06 233 233 P_____P__PP_P_ SH111972 -13.71 139.10 10 -1 -13.77 139.03 1003 -13.78 139.04 TC 22 1003 -13.68 139.07 1 8 -13.87 139.04 TC 22 8 11
1972 SP EA 05:00:00 TS -13.49 139.12 1002 bom 240 240 P_____O__PP_P_ SH111972 -13.44 139.17 10 -1 -13.50 139.10 1002 -13.54 139.08 TC 24 1002 -13.41 139.11 1 7 -13.63 139.08 TC 24 8 12
1972 SP EA 06:00:00 TS -13.36 139.14 242 242 O_____P__OP_O_ jtwc_sh SH111972 -13.30 139.20 10 -1 -13.37 139.13 1001 -13.40 139.10 TC 25 1002 -13.27 139.14 1 7 -13.50 139.10 TC 25 8 9
1972 SP EA 08:00:00 TS -13.08 139.19 1000 bom 255 251 P_____O__PP_P_ SH111972 -13.04 139.22 10 -1 -13.10 139.20 1000 -13.08 139.15 TC 26 1001 -12.99 139.19 1 6 -13.22 139.16 TC 26 9 9
1972 SP EA 09:00:00 TS -12.93 139.22 248 245 P_____P__PP_P_ SH111972 -12.91 139.23 10 -1 -12.94 139.23 1000 -12.91 139.18 TC 27 1001 -12.86 139.22 1 5 -13.07 139.19 TC 27 9 11
1972 SP EA 11:00:00 TS -12.63 139.28 1001 bom 249 249 P_____O__PO_P_ SH111972 -12.64 139.27 10 -1 -12.60 139.30 1001 -12.57 139.26 TC 29 1001 -12.60 139.30 1 5 -12.76 139.26 TC 29 9 12
1972 SP EA 12:00:00 TS -12.48 139.31 250 241 O_____P__OP_O_ jtwc_sh SH111972 -12.50 139.30 10 -1 -12.43 139.33 1001 -12.40 139.30 TC 30 1001 -12.46 139.35 1 5 -12.60 139.30 TC 30 10 15
1972 SP EA 14:00:00 TS -12.16 139.40 1001 bom 243 243 P_____O__PP_P_ SH111972 -12.18 139.42 13 -1 -12.10 139.40 1001 -12.05 139.39 TC 30 1000 -12.20 139.46 1 6 -12.24 139.35 TC 30 10 16
1972 SP EA 15:00:00 TS -11.99 139.45 237 235 P_____P__PP_P_ SH111972 -12.01 139.49 15 -1 -11.92 139.42 1000 -11.89 139.44 TC 30 1000 -12.07 139.52 1 6 -12.05 139.38 TC 30 10 19
1972 SP EA 17:00:00 TS -11.70 139.57 1000 bom 235 235 P_____O__PP_P_ SH111972 -11.72 139.63 18 -1 -11.60 139.50 1000 -11.61 139.54 TC 30 1000 -11.82 139.64 1 7 -11.73 139.45 TC 30 9 23
1972 SP EA 18:00:00 TS -11.58 139.63 238 225 O_____P__OP_O_ jtwc_sh SH111972 -11.60 139.70 20 -1 -11.47 139.59 1000 -11.50 139.60 TC 30 1000 -11.71 139.71 1 7 -11.60 139.50 TC 30 7 36
1972 SP EA 20:00:00 TS -11.41 139.78 1000 bom 225 225 P_____O__PP_P_ SH111972 -11.43 139.81 21 -1 -11.30 139.80 1000 -11.37 139.74 TC 28 1000 -11.51 139.83 1 8 -11.43 139.66 TC 28 6 43
1972 SP EA 21:00:00 TS -11.36 139.84 225 210 P_____P__PP_P_ SH111972 -11.37 139.86 22 -1 -11.28 139.88 1000 -11.33 139.81 TC 27 1001 -11.43 139.89 1 9 -11.38 139.75 TC 27 4 61
1972 SP EA 23:00:00 TS -11.31 139.96 1002 bom 210 210 P_____O__PO_P_ SH111972 -11.31 139.96 24 -1 -11.30 140.00 1002 -11.30 139.94 TC 25 1001 -11.30 140.00 1 10 -11.31 139.93 TC 25 4 68
1972 SP EA 1972-01-05 00:00:00 TS -11.29 140.01 210 201 O_____P__OP_O_ jtwc_sh SH111972 -11.30 140.00 25 -1 -11.30 140.04 1001 -11.30 140.00 TC 25 1002 -11.26 140.04 1 10 -11.30 140.00 TC 25 3 78
1972 SP EA 02:00:00 TS -11.28 140.09 1000 bom 201 201 P_____O__PP_P_ SH111972 -11.31 140.07 28 -1 -11.30 140.10 1000 -11.28 140.08 TC 28 1000 -11.22 140.12 1 10 -11.27 140.09 TC 28 2 87
1972 SP EA 03:00:00 TS -11.29 140.12 201 191 P_____P__PP_P_ SH111972 -11.33 140.11 30 -1 -11.30 140.13 999 -11.28 140.11 TC 30 999 -11.22 140.16 1 10 -11.27 140.12 TC 30 2 109
1972 SP EA 05:00:00 TS -11.31 140.18 997 bom 191 191 P_____O__PP_P_ SH111972 -11.38 140.17 33 -1 -11.30 140.20 997 -11.29 140.17 TC 33 997 -11.24 140.22 1 10 -11.29 140.17 TC 33 2 114
1972 SP EA 06:00:00 TS -11.33 140.21 191 182 O_____P__OP_O_ jtwc_sh SH111972 -11.40 140.20 35 0 -11.29 140.23 997 -11.30 140.20 TC 35 997 -11.27 140.25 1 10 -11.30 140.20 TC 35 2 109
1972 SP EA 08:00:00 TS -11.35 140.28 997 bom 182 176 P_____O__PP_P_ SH111972 -11.40 140.27 35 0 -11.30 140.30 997 -11.33 140.27 TC 35 997 -11.32 140.31 1 10 -11.33 140.27 TC 35 2 110
1972 SP EA 09:00:00 TS -11.36 140.31 176 167 P_____P__PP_P_ SH111972 -11.40 140.30 35 0 -11.33 140.33 997 -11.35 140.30 TC 35 997 -11.35 140.34 1 10 -11.35 140.30 TC 35 2 117
1972 SP EA 11:00:00 TS -11.39 140.38 998 bom 167 167 P_____O__PO_P_ SH111972 -11.40 140.37 35 0 -11.40 140.40 998 -11.39 140.37 TC 35 997 -11.40 140.40 1 10 -11.39 140.37 TC 35 2 112
1972 SP EA 12:00:00 TS -11.40 140.41 167 158 O_____P__OP_O_ jtwc_sh SH111972 -11.40 140.40 35 0 -11.41 140.43 998 -11.40 140.40 TC 35 998 -11.41 140.43 1 11 -11.40 140.40 TC 35 2 102
1972 SP EA 14:00:00 TS -11.41 140.47 998 bom 158 158 P_____O__PP_P_ SH111972 -11.43 140.47 33 -1 -11.40 140.50 998 -11.40 140.46 TC 35 997 -11.42 140.48 1 13 -11.40 140.47 TC 35 2 101
1972 SP EA 15:00:00 TS -11.42 140.51 158 149 P_____P__PP_P_ SH111972 -11.45 140.50 32 -1 -11.39 140.53 997 -11.40 140.49 TC 35 997 -11.43 140.51 1 14 -11.40 140.50 TC 35 2 102
1972 SP EA 17:00:00 TS -11.43 140.57 996 bom 149 149 P_____O__PP_P_ SH111972 -11.49 140.57 30 -1 -11.40 140.60 996 -11.40 140.56 TC 35 996 -11.44 140.57 1 17 -11.40 140.57 TC 35 2 106
1972 SP EA 18:00:00 TS -11.45 140.61 149 134 O_____P__OP_O_ jtwc_sh SH111972 -11.50 140.60 30 -1 -11.43 140.63 996 -11.40 140.60 TC 35 996 -11.45 140.60 1 18 -11.40 140.60 TC 35 2 110
1972 SP EA 20:00:00 TS -11.47 140.67 996 bom 134 134 P_____O__PP_P_ SH111972 -11.50 140.65 30 -1 -11.50 140.70 996 -11.43 140.69 TC 35 996 -11.47 140.67 1 21 -11.43 140.66 TC 35 2 108
1972 SP EA 21:00:00 TS -11.48 140.70 134 125 P_____P__PP_P_ SH111972 -11.50 140.68 30 -1 -11.51 140.73 996 -11.44 140.74 TC 35 996 -11.48 140.71 1 22 -11.44 140.69 TC 35 2 101
1972 SP EA 23:00:00 TS -11.49 140.78 996 bom 125 125 P_____O__PO_P_ SH111972 -11.50 140.75 30 -1 -11.50 140.80 996 -11.48 140.84 TC 35 996 -11.50 140.80 1 25 -11.48 140.76 TC 35 3 100
1972 SP EA 1972-01-06 00:00:00 TS -11.50 140.84 125 109 O_____P__OP_O_ jtwc_sh SH111972 -11.50 140.80 30 -1 -11.49 140.86 995 -11.50 140.90 TC 35 996 -11.51 140.86 1 25 -11.50 140.80 TC 35 4 100
1972 SP EA 02:00:00 TS -11.53 140.97 994 bom 109 109 P_____O__PP_P_ SH111972 -11.53 140.95 28 -1 -11.50 141.00 994 -11.53 141.03 TC 36 994 -11.55 140.99 1 27 -11.53 140.92 TC 36 4 102
1972 SP EA 03:00:00 TS -11.55 141.05 109 86 P_____P__PP_P_ SH111972 -11.54 141.04 27 -1 -11.53 141.07 993 -11.55 141.10 TC 37 994 -11.56 141.06 1 28 -11.55 140.99 TC 37 5 105
1972 SP EA 05:00:00 TS -11.59 141.20 993 bom 86 78 P_____O__PP_P_ SH111972 -11.58 141.22 25 -1 -11.60 141.20 993 4 -11.58 141.24 TC 39 993 -11.60 141.21 1 30 -11.58 141.13 TC 39 5 104
1972 SP EA 06:00:00 TS -11.60 141.27 78 69 O_____P__OP_O_ jtwc_sh SH111972 -11.60 141.30 25 -1 -11.60 141.27 993 -11.60 141.30 TC 40 993 -11.62 141.28 1 30 -11.60 141.20 TC 40 4 103
1972 SP EA 08:00:00 TS -11.63 141.41 993 bom 69 55 P_____O__PP_P_ SH111972 -11.64 141.42 25 -1 -11.60 141.40 993 -11.64 141.42 TC 40 993 -11.65 141.42 1 32 -11.64 141.35 TC 40 4 105
1972 SP EA 09:00:00 TS -11.66 141.47 55 44 P_____P__PP_P_ SH111972 -11.66 141.47 25 -1 -11.63 141.48 993 -11.66 141.47 TC 40 993 -11.67 141.48 1 33 -11.66 141.42 TC 40 3 110
1972 SP EA 11:00:00 TS -11.69 141.57 993 bom 44 44 P_____O__PO_P_ SH111972 -11.69 141.56 25 -1 -11.70 141.60 993 -11.69 141.56 TC 40 993 -11.70 141.60 2 35 -11.69 141.55 TC 40 3 108
1972 SP EA 12:00:00 TS -11.70 141.61 44 34 O_____P__OP_O_ jtwc_sh SH111972 -11.70 141.60 25 -1 -11.71 141.61 993 -11.70 141.60 TC 40 993 -11.69 141.65 2 34 -11.70 141.60 TC 40 2 88
1972 SP EA 14:00:00 TS -11.69 141.66 995 bom 34 34 P_____O__PP_P_ SH111972 -11.70 141.68 25 -1 -11.70 141.60 995 -11.69 141.65 TC 40 993 -11.66 141.73 2 33 -11.70 141.65 TC 40 2 78
1972 SP EA 15:00:00 TS -11.68 141.69 34 34 P_____P__PP_P_ SH111972 -11.69 141.72 25 -1 -11.69 141.63 994 -11.68 141.67 TC 40 993 -11.64 141.76 2 33 -11.70 141.67 TC 40 1 83
1972 SP EA 17:00:00 TS -11.68 141.74 994 bom 34 24 P_____O__PP_P_ SH111972 -11.69 141.78 25 -1 -11.70 141.70 994 -11.68 141.69 TC 40 993 -11.62 141.82 2 32 -11.70 141.69 TC 40 1 97
1972 SP EA 18:00:00 TS -11.69 141.76 24 24 O_____P__OP_O_ jtwc_sh SH111972 -11.70 141.80 25 -1 -11.73 141.73 994 -11.70 141.70 TC 40 994 -11.62 141.84 2 32 -11.70 141.70 TC 40 2 125
1972 SP EA 20:00:00 TS -11.73 141.81 994 bom 24 24 P_____O__PP_P_ SH111972 -11.72 141.85 25 -1 -11.80 141.80 994 -11.79 141.74 TC 38 994 -11.65 141.87 2 31 -11.68 141.77 TC 38 2 123
1972 SP EA 21:00:00 TS -11.74 141.84 24 10 P_____P__PP_P_ SH111972 -11.74 141.87 25 -1 -11.77 141.84 994 -11.85 141.76 TC 37 995 -11.68 141.89 2 30 -11.68 141.81 TC 37 2 154
1972 SP EA 23:00:00 TS -11.83 141.88 996 bom 10 10 P_____O__PO_P_ SH111972 -11.83 141.90 25 -1 -11.80 141.90 996 -12.01 141.79 TC 35 995 -11.80 141.90 1 30 -11.74 141.88 TC 35 4 169
1972 SP EA 1972-01-07 00:00:00 TS -11.94 141.88 10 0 O_____P__OP_O_ jtwc_sh SH111972 -11.90 141.90 25 -1 -12.02 141.86 995 -12.10 141.80 TC 35 996 -11.89 141.90 1 29 -11.80 141.90 TC 35 9 185
1972 SP EA 03:00:00 TS -12.40 141.82 0 0 P_____P__PP_P_ SH111972 -12.23 141.86 20 -1 -13.10 141.59 994 -12.39 141.81 TC 37 994 -12.27 141.88 1 28 -12.18 141.92 TC 37 10 186
1972 SP EA 05:00:00 TS -12.75 141.78 993 bom 0 0 P_____O__PP_P_ SH111972 -12.53 141.82 16 -1 -13.70 141.50 993 -12.65 141.80 TC 39 993 -12.59 141.85 1 27 -12.52 141.91 TC 39 10 183
1972 SP EA 06:00:00 TS -12.91 141.78 0 0 O_____P__OP_O_ jtwc_sh SH111972 -12.70 141.80 15 -1 -13.83 141.55 993 -12.80 141.80 TC 40 993 -12.76 141.84 1 27 -12.70 141.90 TC 40 9 177
1972 SP EA 08:00:00 TS -13.22 141.79 993 bom 0 0 P_____O__PP_P_ SH111972 -13.06 141.79 13 -1 -13.90 141.70 993 -13.15 141.79 TC 40 993 -13.12 141.81 1 26 -13.00 141.87 TC 40 9 0
1972 SP EA 09:00:00 TS -13.36 141.79 0 0 P_____P__PP_P_ SH111972 -13.26 141.79 12 -1 -13.83 141.75 993 -13.35 141.79 TC 40 993 -13.31 141.80 1 25 -13.16 141.85 TC 40 9 0
1972 SP EA 11:00:00 TS -13.67 141.80 993 bom 0 0 P_____O__PO_P_ SH111972 -13.68 141.79 10 -1 -13.70 141.80 993 -13.78 141.79 TC 40 993 -13.70 141.80 1 25 -13.50 141.81 TC 40 10 177
1972 SP EA 12:00:00 TS -13.87 141.80 0 0 O_____P__OP_O_ jtwc_sh SH111972 -13.90 141.80 10 -1 -13.81 141.78 993 -14.00 141.80 TC 40 993 -13.89 141.81 1 25 -13.70 141.80 TC 40 14 0
1972 SP EA 15:00:00 TS -14.57 141.81 0 0 P_____P__PP_P_ SH111972 -14.57 141.84 15 -1 -14.59 141.69 993 -14.74 141.88 TC 40 993 -14.49 141.85 1 25 -14.46 141.77 TC 37 14 177
1972 SP EA 17:00:00 TS -15.05 141.86 993 bom 0 0 P_____O__PP_P_ SH111972 -15.00 141.88 18 -1 -15.20 141.80 993 4 -15.20 141.96 TC 40 993 -14.90 141.89 1 25 -14.98 141.78 TC 35 14 171
1972 SP EA 18:00:00 TS -15.26 141.92 0 0 O_____P__OP_O_ jtwc_sh SH111972 -15.20 141.90 20 -1 -15.47 142.02 993 -15.40 142.00 TC 40 993 -15.10 141.92 1 25 -15.20 141.80 TC 35 12 164
1972 SP EA 20:00:00 TS -15.62 142.03 994 bom 0 0 P_____O__PP_P_ SH111972 -15.55 141.95 23 -1 -15.90 142.40 994 -15.69 142.06 TC 38 994 -15.49 141.98 1 25 -15.53 141.87 TC 35 10 166
1972 SP EA 21:00:00 TS -15.75 142.05 0 0 P_____P__PP_P_ SH111972 -15.70 141.98 25 -1 -15.97 142.34 995 -15.81 142.09 TC 37 995 -15.67 142.02 1 25 -15.67 141.92 TC 35 7 173
1972 SP EA 23:00:00 TS -15.98 142.08 998 bom 0 0 P_____O__PO_P_ SH111972 -15.98 142.05 28 -1 -16.00 142.10 998 -16.01 142.16 TC 35 997 -16.00 142.10 1 25 -15.90 142.04 TC 35 7 169
1972 SP EA 1972-01-08 00:00:00 TS -16.09 142.13 0 0 O_____P__OP_O_ jtwc_sh SH111972 -16.10 142.10 30 -1 -16.08 142.13 996 -16.10 142.20 TC 35 998 -16.14 142.15 1 23 -16.00 142.10 TC 35 8 152
1972 SP EA 02:00:00 TS -16.31 142.26 994 bom 0 0 P_____O__PP_P_ SH111972 -16.32 142.22 30 -1 -16.30 142.30 994 -16.31 142.33 TC 36 996 -16.38 142.27 1 21 -16.22 142.23 TC 35 8 149
1972 SP EA 03:00:00 TS -16.41 142.33 0 0 P_____P__PP_P_ SH111972 -16.42 142.29 30 -1 -16.40 142.37 994 -16.41 142.40 TC 37 996 -16.49 142.33 1 20 -16.32 142.30 TC 35 7 146
1972 SP EA 05:00:00 TS -16.60 142.47 994 bom 0 0 P_____O__PP_P_ SH111972 -16.61 142.43 30 -1 -16.60 142.50 994 -16.60 142.54 TC 39 994 -16.69 142.46 1 17 -16.51 142.44 TC 35 7 146
1972 SP EA 06:00:00 TS -16.70 142.53 0 0 O_____P__OP_O_ jtwc_sh SH111972 -16.70 142.50 30 -1 -16.70 142.57 994 -16.70 142.60 TC 40 994 -16.78 142.52 1 16 -16.60 142.50 TC 35 7 149
1972 SP EA 08:00:00 TS -16.89 142.65 994 bom 0 0 P_____O__PP_P_ SH111972 -16.90 142.61 30 -1 -16.90 142.70 994 -16.90 142.69 TC 40 994 -16.95 142.64 1 13 -16.80 142.62 TC 35 7 152
1972 SP EA 09:00:00 TS -16.99 142.69 0 0 P_____P__PP_P_ SH111972 -17.00 142.67 30 -1 -17.00 142.74 994 -17.00 142.72 TC 40 994 -17.03 142.70 1 12 -16.90 142.67 TC 35 6 157
1972 SP EA 11:00:00 TS -17.18 142.78 995 bom 0 0 P_____O__PO_P_ SH111972 -17.20 142.76 30 -1 -17.20 142.80 995 -17.20 142.78 TC 40 994 -17.20 142.80 1 10 -17.10 142.76 TC 35 6 159
1972 SP EA 12:00:00 TS -17.28 142.81 0 0 O_____P__OP_O_ jtwc_sh SH111972 -17.30 142.80 30 -1 -17.30 142.83 995 -17.30 142.80 TC 40 995 -17.30 142.84 1 11 -17.20 142.80 TC 35 6 163
1972 SP EA 15:00:00 TS -17.59 142.90 0 0 P_____P__PP_P_ SH111972 -17.61 142.92 30 -1 -17.60 142.88 995 -17.61 142.86 TC 40 995 -17.59 142.94 1 16 -17.51 142.87 TC 32 6 167
1972 SP EA 17:00:00 TS -17.78 142.94 995 bom 0 0 P_____O__PP_P_ SH111972 -17.81 142.98 30 -1 -17.80 142.90 995 -17.81 142.89 TC 40 995 -17.77 142.98 1 20 -17.71 142.89 TC 30 6 171
1972 SP EA 18:00:00 TS -17.88 142.95 0 0 O_____P__OP_O_ jtwc_sh SH111972 -17.90 143.00 30 -1 -17.91 142.90 995 -17.90 142.90 TC 40 995 -17.86 143.00 1 21 -17.80 142.90 TC 30 6 171
1972 SP EA 20:00:00 TS -18.06 142.97 996 bom 0 0 P_____O__PP_P_ SH111972 -18.08 143.02 30 -1 -18.10 142.90 996 -18.07 142.94 TC 40 995 -18.04 143.01 1 25 -17.97 142.94 TC 30 5 173
1972 SP EA 21:00:00 TS -18.14 142.99 0 0 P_____P__PP_P_ SH111972 -18.16 143.02 30 -1 -18.17 142.93 995 -18.16 142.96 TC 40 995 -18.13 143.01 1 26 -18.06 142.96 TC 30 5 174
1972 SP EA 23:00:00 TS -18.30 143.00 995 bom 0 0 P_____O__PO_P_ SH111972 -18.32 143.01 30 -1 -18.30 143.00 995 -18.32 142.99 TC 40 995 -18.30 143.00 1 30 -18.22 142.99 TC 30 5 0
1972 SP EA 1972-01-09 00:00:00 TS -18.37 143.00 0 0 O_____P__OP_O_ jtwc_sh SH111972 -18.40 143.00 30 -1 -18.36 143.01 995 -18.40 143.00 TC 40 995 -18.38 143.00 1 30 -18.30 143.00 TC 30 5 0
1972 SP EA 02:00:00 TS -18.53 142.99 996 bom 0 0 P_____O__PP_P_ SH111972 -18.54 142.99 28 -1 -18.50 143.00 996 -18.57 143.00 TC 40 995 -18.54 142.97 1 30 -18.47 142.99 TC 30 5 0
1972 SP EA 03:00:00 TS -18.60 142.98 0 0 P_____P__PP_P_ SH111972 -18.60 142.98 27 -1 -18.60 142.97 995 -18.66 142.99 TC 40 995 -18.62 142.95 1 30 -18.56 142.98 TC 30 5 197
1972 SP EA 05:00:00 TS -18.76 142.92 995 bom 0 0 P_____O__PP_P_ SH111972 -18.73 142.94 25 -1 -18.80 142.90 995 -18.82 142.94 TC 40 995 -18.76 142.90 1 30 -18.72 142.93 TC 30 5 199
1972 SP EA 06:00:00 TS -18.84 142.89 0 0 O_____P__OP_O_ jtwc_sh SH111972 -18.80 142.90 25 -1 -18.87 142.87 995 -18.90 142.90 TC 40 995 -18.84 142.86 1 30 -18.80 142.90 TC 30 5 208
1972 SP EA 08:00:00 TS -18.98 142.80 995 bom 0 0 P_____O__PP_P_ SH111972 -18.96 142.80 25 -1 -19.00 142.80 995 -19.04 142.80 TC 40 995 -18.98 142.77 1 30 -18.94 142.83 TC 30 5 212
1972 SP EA 09:00:00 TS -19.06 142.74 0 0 P_____P__PP_P_ SH111972 -19.05 142.73 25 -1 -19.07 142.75 995 -19.11 142.74 TC 40 995 -19.06 142.72 1 30 -19.01 142.79 TC 30 6 220
1972 SP EA 11:00:00 TS -19.20 142.60 995 bom 0 0 P_____O__PO_P_ SH111972 -19.22 142.58 25 -1 -19.20 142.60 995 -19.24 142.59 TC 40 995 -19.20 142.60 1 30 -19.14 142.67 TC 30 6 223
1972 SP EA 12:00:00 TS -19.27 142.52 0 0 O_____P__OP_O_ jtwc_sh SH111972 -19.30 142.50 25 -1 -19.27 142.51 995 -19.30 142.50 TC 40 995 -19.28 142.53 1 30 -19.20 142.60 TC 30 6 229
1972 SP EA 14:00:00 TS -19.41 142.35 995 bom 0 0 P_____O__PP_P_ SH111972 -19.44 142.35 25 -1 -19.40 142.30 995 -19.43 142.31 TC 40 994 -19.43 142.36 1 30 -19.33 142.42 TC 28 6 231
1972 SP EA 15:00:00 TS -19.48 142.25 0 0 P_____P__PP_P_ SH111972 -19.50 142.26 25 -1 -19.47 142.20 994 -19.49 142.21 TC 40 994 -19.50 142.27 1 30 -19.39 142.32 TC 27 7 233
1972 SP EA 17:00:00 TS -19.61 142.06 994 bom 0 0 P_____O__PP_P_ SH111972 -19.63 142.09 25 -1 -19.60 142.00 994 -19.63 142.00 TC 40 994 -19.65 142.08 1 30 -19.53 142.10 TC 25 7 233
1972 SP EA 18:00:00 TS -19.68 141.96 0 0 O_____P__OP_O_ jtwc_sh SH111972 -19.70 142.00 25 -1 -19.66 141.89 994 -19.70 141.90 TC 40 994 -19.73 141.98 1 30 -19.60 142.00 TC 25 7 230
1972 SP EA 20:00:00 TS -19.84 141.77 994 bom 0 0 P_____O__PP_P_ SH111972 -19.86 141.80 25 -1 -19.80 141.70 994 -19.86 141.72 TC 38 994 -19.88 141.78 1 30 -19.76 141.82 TC 25 7 228
1972 SP EA 21:00:00 TS -19.92 141.68 0 0 P_____P__PP_P_ SH111972 -19.95 141.70 25 -1 -19.90 141.63 994 -19.95 141.63 TC 37 995 -19.95 141.68 1 30 -19.85 141.74 TC 25 7 224
1972 SP EA 23:00:00 TS -20.10 141.51 996 bom 0 0 P_____O__PO_P_ SH111972 -20.12 141.50 25 -1 -20.10 141.50 996 -20.12 141.47 TC 35 995 -20.10 141.50 1 30 -20.02 141.57 TC 25 7 224
1972 SP EA 1972-01-10 00:00:00 TS -20.17 141.42 0 0 O_____P__OP_O_ jtwc_sh SH111972 -20.20 141.40 25 -1 -20.17 141.43 995 -20.20 141.40 TC 35 996 -20.17 141.41 1 29 -20.10 141.50 TC 25 6 227
1972 SP EA 02:00:00 TS -20.31 141.26 994 bom 0 0 P_____O__PP_P_ SH111972 -20.34 141.21 23 -1 -20.30 141.30 994 -20.34 141.25 TC 36 995 -20.31 141.24 1 28 -20.24 141.36 TC 25 6 228
1972 SP EA 03:00:00 TS -20.38 141.18 0 0 P_____P__PP_P_ SH111972 -20.40 141.12 22 -1 -20.37 141.23 994 -20.40 141.18 TC 37 995 -20.38 141.16 1 28 -20.30 141.29 TC 25 6 226
1972 SP EA 05:00:00 TS -20.51 141.04 995 bom 0 0 P_____O__PP_P_ SH111972 -20.53 140.96 20 -1 -20.50 141.10 995 -20.53 141.06 TC 39 995 -20.53 141.00 1 27 -20.43 141.16 TC 25 6 224
1972 SP EA 06:00:00 TS -20.58 140.98 0 0 O_____P__OP_O_ jtwc_sh SH111972 -20.60 140.90 20 -1 -20.56 141.03 995 -20.60 141.00 TC 40 995 -20.60 140.93 1 27 -20.50 141.10 TC 25 6 219
1972 SP EA 08:00:00 TS -20.73 140.85 996 bom 0 0 P_____O__PP_P_ SH111972 -20.75 140.80 18 -1 -20.70 140.90 996 -20.75 140.87 TC 38 996 -20.75 140.82 1 26 -20.65 140.94 TC 25 6 216
1972 SP EA 09:00:00 TS -20.81 140.80 0 0 P_____P__PP_P_ SH111972 -20.83 140.76 17 -1 -20.79 140.82 996 -20.84 140.81 TC 37 996 -20.83 140.77 1 25 -20.74 140.86 TC 25 6 207
1972 SP EA 11:00:00 TS -20.99 140.72 998 bom 0 0 P_____O__PO_P_ SH111972 -21.01 140.71 15 -1 -21.00 140.70 998 -21.01 140.72 TC 35 997 -21.00 140.70 1 25 -20.91 140.74 TC 25 6 200
1972 SP EA 12:00:00 TS -21.08 140.69 0 0 O_____P__OP_O_ jtwc_sh SH111972 -21.10 140.70 15 -1 -21.10 140.68 997 -21.10 140.70 TC 35 998 -21.09 140.68 1 25 -21.00 140.70 TC 25 6 188
1972 SP EA 14:00:00 TS -21.27 140.68 997 bom 0 0 P_____O__PP_P_ SH111972 -21.29 140.67 16 -1 -21.30 140.70 997 -21.29 140.70 TC 36 996 -21.28 140.67 1 25 -21.19 140.69 TC 25 6 176
1972 SP EA 15:00:00 TS -21.37 140.70 0 0 P_____P__PP_P_ SH111972 -21.39 140.67 17 -1 -21.40 140.73 996 -21.39 140.72 TC 37 996 -21.38 140.67 1 25 -21.29 140.71 TC 25 6 172
1972 SP EA 17:00:00 TS -21.58 140.74 995 bom 0 0 P_____O__PP_P_ SH111972 -21.60 140.68 19 -1 -21.60 140.80 995 -21.60 140.77 TC 39 995 -21.58 140.70 1 25 -21.50 140.77 TC 25 6 169
1972 SP EA 18:00:00 TS -21.68 140.75 0 0 O_____P__OP_O_ jtwc_sh SH111972 -21.70 140.70 20 -1 -21.70 140.80 995 -21.70 140.80 TC 40 995 -21.68 140.73 1 25 -21.60 140.80 TC 25 6 169
1972 SP EA 20:00:00 TS -21.88 140.79 997 bom 0 0 P_____O__PP_P_ SH111972 -21.90 140.75 -1 -21.90 140.80 997 -21.90 140.83 TC 38 996 -21.89 140.79 1 25 -21.80 140.83 TC 25 6 170
1972 SP EA 21:00:00 TS -21.98 140.82 0 0 P_____P__PP_P_ SH111972 -22.00 140.78 -1 -22.00 140.83 997 -22.00 140.84 TC 37 996 -21.99 140.82 1 25 -21.90 140.85 TC 25 6 166
1972 SP EA 23:00:00 TS -22.18 140.88 998 bom 0 0 P_____O__PO_P_ SH111972 -22.20 140.86 -1 -22.20 140.90 998 -22.20 140.88 TC 35 997 -22.20 140.90 1 25 -22.10 140.88 TC 25 6 165
1972 SP EA 1972-01-11 00:00:00 TS -22.28 140.90 0 0 O_____P__OP_O_ jtwc_sh SH111972 -22.30 140.90 -1 -22.30 140.90 997 -22.30 140.90 TC 35 998 -22.29 140.92 1 24 -22.20 140.90 TC 25 6 170
1972 SP EA 02:00:00 TS -22.48 140.94 997 bom 0 0 P_____O__PP_P_ SH111972 -22.50 140.96 -1 -22.50 140.90 997 -22.50 140.95 TC 35 997 -22.48 140.98 1 22 -22.40 140.92 TC 23 6 170
1972 SP EA 03:00:00 TS -22.58 140.97 0 0 P_____P__PP_P_ SH111972 -22.60 140.99 -1 -22.60 140.92 996 -22.60 140.98 TC 35 997 -22.57 141.01 1 21 -22.50 140.93 TC 22 6 164
1972 SP EA 05:00:00 TS -22.78 141.03 996 bom 0 0 P_____O__PP_P_ SH111972 -22.80 141.06 -1 -22.80 141.00 996 -22.80 141.05 TC 35 996 -22.76 141.08 1 20 -22.70 140.97 TC 20 6 160
1972 SP EA 06:00:00 TS -22.88 141.08 0 0 O_____P__OP_O_ jtwc_sh SH111972 -22.90 141.10 -1 -22.90 141.06 996 -22.90 141.10 TC 35 996 -22.86 141.12 1 19 -22.80 141.00 TC 20 7 154
1972 SP EA 08:00:00 TS -23.07 141.19 997 bom 0 0 P_____O__PP_P_ SH111972 -23.09 141.21 -1 -23.10 141.20 997 -23.09 141.21 TC 35 996 -23.06 141.21 1 17 -22.99 141.10 TC 20 7 152
1972 SP EA 09:00:00 TS -23.17 141.25 0 0 P_____P__PP_P_ SH111972 -23.18 141.28 -1 -23.19 141.26 997 -23.18 141.27 TC 35 997 -23.17 141.27 1 16 -23.08 141.16 TC 20 7 148
1972 SP EA 11:00:00 TS -23.38 141.40 998 bom 0 0 P_____O__PO_P_ SH111972 -23.39 141.42 -1 -23.40 141.40 998 -23.39 141.42 TC 35 997 -23.40 141.40 1 15 -23.29 141.31 TC 20 8 148
1972 SP EA 12:00:00 TS -23.49 141.48 0 0 O_____P__OP_O_ jtwc_sh SH111972 -23.50 141.50 -1 -23.53 141.49 997 -23.50 141.50 TC 35 998 -23.52 141.48 1 15 -23.40 141.40 TC 20 9 147
1972 SP EA 14:00:00 TS -23.74 141.66 997 bom 0 0 P_____O__PP_P_ SH111972 -23.75 141.66 -1 -23.80 141.70 997 -23.75 141.68 TC 35 997 -23.78 141.64 1 17 -23.65 141.58 TC 20 9 148
1972 SP EA 15:00:00 TS -23.88 141.75 0 0 P_____P__PP_P_ SH111972 -23.88 141.74 -1 -23.93 141.80 997 -23.88 141.78 TC 35 997 -23.92 141.74 1 18 -23.78 141.69 TC 20 10 147
1972 SP EA 17:00:00 TS -24.15 141.94 997 bom 0 0 P_____O__PP_P_ SH111972 -24.16 141.91 -1 -24.20 142.00 997 -24.16 141.99 TC 35 997 -24.20 141.93 1 20 -24.06 141.89 TC 20 10 147
1972 SP EA 18:00:00 TS -24.29 142.04 0 0 O_____P__OP_O_ jtwc_sh SH111972 -24.30 142.00 -1 -24.33 142.10 997 -24.30 142.10 TC 35 997 -24.35 142.04 1 20 -24.20 142.00 TC 20 10 146
1972 SP EA 20:00:00 TS -24.57 142.25 997 bom 0 0 ______O___P_P_ SH111972 -1 -24.60 142.30 997 TC -24.64 142.26 1 22 -24.50 142.20 TC 20 10 147
1972 SP EA 21:00:00 TS -24.72 142.35 0 0 ______P___P_P_ SH111972 -1 -24.76 142.40 997 TC -24.80 142.37 1 23 -24.65 142.30 TC 20 11 149
1972 SP EA 23:00:00 TS -25.02 142.55 997 bom 0 0 ______O___O_P_ SH111972 -1 -25.10 142.60 997 TC -25.10 142.60 1 25 -24.95 142.50 TC 20 9 149
1972 SP EA 1972-01-12 00:00:00 TS -25.10 142.60 0 ____________O_ -1 1 -25.10 142.60 TC 20 5 149